This is the latest recevied weather packets stored in our database for station/object CW79215. If no packets are shown the sender has not sent any weather packets the latest 1 day(s).
| Time | Temp. | Humidity | Pressure | Rain* | Wind** | Luminosity | Snow |
|---|---|---|---|---|---|---|---|
| 1778114242 | 10° C | 82% | 1015.7 hPa | - | - | - | - |
| 1778108842 | 10° C | 81% | 1015.8 hPa | - | - | - | - |
| 1778107942 | 10° C | 82% | 1015.8 hPa | - | - | - | - |
| 1778098041 | 10.56° C | 83% | 1015 hPa | - | - | - | - |
| 1778097141 | 10.56° C | 82% | 1015 hPa | - | - | - | - |
| 1778096241 | 10.56° C | 82% | 1014.9 hPa | - | - | - | - |
| 1778088140 | 11.11° C | 81% | 1013.4 hPa | - | - | - | - |
| 1778087240 | 11.67° C | 79% | 1013.3 hPa | - | - | - | - |
| 1778086340 | 11.67° C | 79% | 1013.3 hPa | - | - | - | - |
| 1778077339 | 12.78° C | 76% | 1012.7 hPa | - | - | - | - |
| 1778075538 | 13.33° C | 75% | 1012.4 hPa | - | - | - | - |
| 1778074638 | 12.78° C | 77% | 1012.2 hPa | - | - | - | - |
| 1778073738 | 13.33° C | 77% | 1012.2 hPa | - | - | - | - |
| 1778071938 | 14.44° C | 71% | 1011.8 hPa | - | - | - | - |
| 1778071038 | 14.44° C | 72% | 1011.8 hPa | - | - | - | - |
| 1778070138 | 14.44° C | 71% | 1011.6 hPa | - | - | - | - |
| 1778069238 | 15° C | 64% | 1011.5 hPa | - | - | - | - |
| 1778064737 | 16.67° C | 59% | 1011.1 hPa | - | - | - | - |
| 1778063836 | 16.67° C | 61% | 1011.2 hPa | - | - | - | - |
| 1778062936 | 16.11° C | 59% | 1011.3 hPa | - | - | - | - |
| 1778061135 | 16.67° C | 57% | 1011.1 hPa | - | - | - | - |
| 1778060235 | 17.22° C | 56% | 1011.1 hPa | - | - | - | - |
| 1778058434 | 18.33° C | 56% | 1011 hPa | - | - | - | - |
| 1778056633 | 18.33° C | 55% | 1010.7 hPa | - | - | - | - |
| 1778055733 | 17.22° C | 60% | 1010.7 hPa | - | - | - | - |
* Rain since midnight (hover to see other rain measurements)
** Current wind speed in m/s (hover to see current wind gust speed)